Time;durP1;ratioP1;P1;durP2;ratioP2;P2;SDS_P1;SDS_P2;PMS_P1;PMS_P2;Temp;Humidity;BMP_temperature;BMP_pressure;BME280_temperature;BME280_humidity;BME280_pressure;Samples;Min_cycle;Max_cycle;Signal;HPM_P1;HPM_P2
2024/01/09 00:00:22;;;;;;;11.52;7.15;;;24.40;99.90;;;;;;5015210;28;20384;-62
2024/01/09 00:02:48;;;;;;;12.35;6.90;;;24.30;99.90;;;;;;5013530;28;20361;-62
2024/01/09 00:05:14;;;;;;;9.00;6.82;;;24.30;99.90;;;;;;5013096;28;20034;-61
2024/01/09 00:07:40;;;;;;;9.57;7.10;;;24.30;99.90;;;;;;5014445;28;20384;-61
2024/01/09 00:10:07;;;;;;;10.18;6.32;;;24.20;99.90;;;;;;5013182;28;20030;-61
2024/01/09 00:12:33;;;;;;;9.40;6.15;;;24.30;99.90;;;;;;5014806;28;20076;-62
2024/01/09 00:14:58;;;;;;;9.60;6.93;;;24.30;99.90;;;;;;5014425;28;20439;-62
2024/01/09 00:18:14;;;;;;;10.15;6.60;;;24.30;99.90;;;;;;5014464;28;20026;-62
2024/01/09 00:20:39;;;;;;;9.50;6.40;;;24.30;99.90;;;;;;4998379;28;20081;-62
2024/01/09 00:23:05;;;;;;;9.45;6.75;;;24.20;99.90;;;;;;5002278;28;20737;-62
2024/01/09 00:25:30;;;;;;;12.98;7.03;;;24.20;99.90;;;;;;5014245;28;20026;-62
2024/01/09 00:27:56;;;;;;;10.38;6.75;;;24.20;99.90;;;;;;5011685;28;20035;-62
2024/01/09 00:30:22;;;;;;;10.45;6.45;;;24.20;99.90;;;;;;5012951;28;20472;-62
2024/01/09 00:32:49;;;;;;;11.57;5.80;;;24.20;99.90;;;;;;5014295;28;20022;-62
2024/01/09 00:35:14;;;;;;;8.52;6.45;;;24.20;99.90;;;;;;5013460;28;20428;-62
2024/01/09 00:37:41;;;;;;;9.32;5.68;;;24.20;99.90;;;;;;5014095;28;20100;-62
2024/01/09 00:40:08;;;;;;;8.73;5.70;;;24.10;99.90;;;;;;5014002;28;20022;-62
2024/01/09 00:42:33;;;;;;;7.32;4.82;;;24.10;99.90;;;;;;5013975;28;20453;-60
2024/01/09 00:45:00;;;;;;;7.72;5.57;;;24.20;99.90;;;;;;5013721;28;20133;-61
2024/01/09 00:47:27;;;;;;;10.88;5.60;;;24.20;99.90;;;;;;5015648;28;20044;-60
2024/01/09 00:49:52;;;;;;;12.68;6.22;;;24.20;99.90;;;;;;5005291;28;20030;-61
2024/01/09 00:52:18;;;;;;;10.40;5.88;;;24.20;99.90;;;;;;5041536;28;20061;-61
2024/01/09 00:54:45;;;;;;;11.98;5.95;;;24.20;99.90;;;;;;5013640;28;20120;-60
2024/01/09 00:57:11;;;;;;;10.95;5.43;;;24.20;99.90;;;;;;5013761;28;20038;-60
2024/01/09 00:59:37;;;;;;;7.50;5.68;;;24.20;99.90;;;;;;5013558;28;20029;-60
2024/01/09 01:02:02;;;;;;;10.00;5.65;;;24.10;99.90;;;;;;5013691;28;20038;-60
2024/01/09 01:04:28;;;;;;;9.43;5.50;;;24.10;99.90;;;;;;5013585;28;20124;-60
2024/01/09 01:06:54;;;;;;;11.40;5.93;;;24.10;99.90;;;;;;5012068;28;20034;-61
2024/01/09 01:09:22;;;;;;;10.98;5.88;;;24.00;99.90;;;;;;5013170;28;20041;-60
2024/01/09 01:11:48;;;;;;;14.60;5.30;;;24.10;99.90;;;;;;5013556;28;20026;-61
2024/01/09 01:14:14;;;;;;;8.98;5.13;;;24.00;99.90;;;;;;5013349;28;20113;-61
2024/01/09 01:16:39;;;;;;;8.48;5.28;;;24.10;99.90;;;;;;5013230;28;20018;-61
2024/01/09 01:19:05;;;;;;;9.90;6.00;;;24.00;99.90;;;;;;5013543;28;20034;-61
2024/01/09 01:21:30;;;;;;;8.68;5.20;;;24.00;99.90;;;;;;5012849;28;20022;-61
2024/01/09 01:23:56;;;;;;;10.00;5.60;;;24.00;99.90;;;;;;5013227;28;20136;-62
2024/01/09 01:26:22;;;;;;;12.68;5.28;;;24.10;99.90;;;;;;5013894;28;20022;-61
2024/01/09 01:28:47;;;;;;;7.30;6.03;;;24.00;99.90;;;;;;5018684;28;20057;-61
2024/01/09 01:31:13;;;;;;;7.60;5.10;;;24.10;99.90;;;;;;5012169;28;20061;-62
2024/01/09 01:33:39;;;;;;;10.80;6.45;;;24.10;99.90;;;;;;5013078;28;20030;-61
2024/01/09 01:36:05;;;;;;;9.85;5.75;;;24.10;99.90;;;;;;5012952;28;20025;-62
2024/01/09 01:38:31;;;;;;;10.48;5.63;;;24.10;99.90;;;;;;5012869;28;20029;-61
2024/01/09 01:40:56;;;;;;;8.25;5.63;;;24.00;99.90;;;;;;5012726;28;20345;-61
2024/01/09 01:43:22;;;;;;;7.97;5.53;;;24.10;99.90;;;;;;5013149;28;20080;-61
2024/01/09 01:45:47;;;;;;;11.10;5.10;;;24.00;99.90;;;;;;5012802;28;20033;-61
2024/01/09 01:48:14;;;;;;;8.52;5.85;;;23.90;99.90;;;;;;5012414;28;20053;-61
2024/01/09 01:50:41;;;;;;;9.68;5.63;;;;;;;;;;5012583;28;20447;-61
2024/01/09 01:56:10;;;;;;;12.25;5.78;;;;;;;;;;5009217;28;20502;-61
2024/01/09 01:58:37;;;;;;;12.38;6.25;;;;;;;;;;5012454;28;20128;-61
2024/01/09 02:01:04;;;;;;;9.32;5.40;;;;;;;;;;5012284;28;20088;-60
2024/01/09 02:03:30;;;;;;;9.82;5.75;;;;;;;;;;5012544;28;20024;-61
2024/01/09 02:05:56;;;;;;;10.52;5.78;;;;;;;;;;5012456;28;20038;-61
2024/01/09 02:08:24;;;;;;;9.43;5.70;;;;;;;;;;5010985;28;20127;-60
2024/01/09 02:10:50;;;;;;;8.65;4.90;;;;;;;;;;5011700;28;20125;-61
2024/01/09 02:13:17;;;;;;;8.18;5.13;;;;;;;;;;5011344;28;20025;-61
2024/01/09 02:15:43;;;;;;;8.07;5.78;;;;;;;;;;5011470;28;20487;-61
2024/01/09 02:18:09;;;;;;;7.53;5.93;;;;;;;;;;5011528;28;20400;-61
2024/01/09 02:20:35;;;;;;;11.63;5.68;;;;;;;;;;5009523;28;20048;-61
2024/01/09 02:23:01;;;;;;;9.15;6.00;;;;;;;;;;5007708;28;20422;-61
2024/01/09 02:25:27;;;;;;;8.65;5.50;;;;;;;;;;5008309;28;20029;-61
2024/01/09 02:27:53;;;;;;;10.13;6.07;;;;;;;;;;5010217;28;20116;-61
2024/01/09 02:30:20;;;;;;;12.48;6.60;;;;;;;;;;5014047;28;20168;-61
2024/01/09 02:32:47;;;;;;;8.05;5.03;;;;;;;;;;5014045;28;20046;-61
2024/01/09 02:35:13;;;;;;;9.68;6.10;;;;;;;;;;5016221;28;20061;-61
2024/01/09 02:37:39;;;;;;;12.05;5.75;;;;;;;;;;5010105;28;20119;-61
2024/01/09 02:40:07;;;;;;;10.23;5.90;;;;;;;;;;5010416;28;20048;-61
2024/01/09 02:42:33;;;;;;;12.57;5.47;;;;;;;;;;5011178;28;20022;-61
2024/01/09 02:44:59;;;;;;;7.25;5.30;;;;;;;;;;5011850;28;20036;-61
2024/01/09 02:47:26;;;;;;;11.43;5.15;;;;;;;;;;5010430;28;20072;-61
2024/01/09 02:49:51;;;;;;;10.15;5.70;;;;;;;;;;5004630;28;20038;-61
2024/01/09 02:55:21;;;;;;;8.93;5.88;;;;;;;;;;5005243;28;20133;-61
2024/01/09 02:57:47;;;;;;;9.75;5.97;;;;;;;;;;5011014;28;20167;-61
2024/01/09 03:00:13;;;;;;;12.23;5.72;;;;;;;;;;5012032;28;20033;-61
2024/01/09 03:02:39;;;;;;;9.25;5.43;;;;;;;;;;5003664;28;20114;-61
2024/01/09 03:05:06;;;;;;;12.30;6.80;;;;;;;;;;5004917;28;20519;-61
2024/01/09 03:07:32;;;;;;;12.27;5.70;;;;;;;;;;5011709;28;20021;-62
2024/01/09 03:13:02;;;;;;;9.60;5.57;;;;;;;;;;5011537;28;20149;-61
2024/01/09 03:15:28;;;;;;;8.68;5.57;;;;;;;;;;5010697;28;20131;-62
2024/01/09 03:17:54;;;;;;;10.95;6.05;;;;;;;;;;5022636;28;20565;-62
2024/01/09 03:20:20;;;;;;;9.18;6.07;;;;;;;;;;5012185;28;20125;-61
2024/01/09 03:22:46;;;;;;;10.30;5.55;;;;;;;;;;5011583;28;20091;-62
2024/01/09 03:25:12;;;;;;;9.27;5.57;;;;;;;;;;5011412;28;20022;-61
2024/01/09 03:27:38;;;;;;;7.72;6.03;;;;;;;;;;5010882;28;20393;-61
2024/01/09 03:30:04;;;;;;;8.48;6.35;;;;;;;;;;5009900;28;20040;-61
2024/01/09 03:32:30;;;;;;;10.40;6.10;;;;;;;;;;5010650;28;20483;-62
2024/01/09 03:34:56;;;;;;;10.30;5.97;;;;;;;;;;5009638;28;20026;-62
2024/01/09 03:37:22;;;;;;;9.50;5.95;;;;;;;;;;5011735;28;20207;-62
2024/01/09 03:39:48;;;;;;;13.65;5.72;;;;;;;;;;5010299;28;20037;-61
2024/01/09 03:42:14;;;;;;;12.43;6.13;;;;;;;;;;5011673;28;20033;-61
2024/01/09 03:44:40;;;;;;;9.63;6.43;;;;;;;;;;5010256;28;20357;-61
2024/01/09 03:47:06;;;;;;;10.07;6.90;;;;;;;;;;5011170;28;20061;-61
2024/01/09 03:49:32;;;;;;;9.85;6.43;;;;;;;;;;5008011;28;20041;-61
2024/01/09 03:51:58;;;;;;;10.68;6.30;;;;;;;;;;5010536;28;21217;-62
2024/01/09 03:54:24;;;;;;;8.15;5.88;;;;;;;;;;5009269;28;20057;-61
2024/01/09 03:56:50;;;;;;;13.50;7.25;;;;;;;;;;5011288;28;20122;-60
2024/01/09 03:59:16;;;;;;;9.88;6.88;;;;;;;;;;5012639;28;20128;-61
2024/01/09 04:01:42;;;;;;;13.45;6.68;;;;;;;;;;5020941;28;20029;-61
2024/01/09 04:04:08;;;;;;;9.38;6.97;;;;;;;;;;5012239;28;20384;-60
2024/01/09 04:06:34;;;;;;;10.15;5.90;;;;;;;;;;5017080;28;20030;-60
2024/01/09 04:09:00;;;;;;;12.52;7.30;;;;;;;;;;5019973;28;20084;-61
2024/01/09 04:11:26;;;;;;;11.90;6.75;;;;;;;;;;5020482;28;20041;-61
2024/01/09 04:13:52;;;;;;;11.50;6.60;;;;;;;;;;5027541;28;20475;-60
2024/01/09 04:16:19;;;;;;;15.25;7.03;;;;;;;;;;5014150;28;20117;-61
2024/01/09 04:18:48;;;;;;;12.90;7.20;;;;;;;;;;5013175;28;20040;-61
2024/01/09 04:21:14;;;;;;;10.23;7.18;;;;;;;;;;5023657;28;20175;-60
2024/01/09 04:23:40;;;;;;;12.50;7.25;;;;;;;;;;5030227;28;20480;-60
2024/01/09 04:26:06;;;;;;;11.88;7.50;;;;;;;;;;5024035;28;20122;-61
2024/01/09 04:28:32;;;;;;;11.00;6.68;;;;;;;;;;5013465;28;20506;-61
2024/01/09 04:30:58;;;;;;;12.88;7.47;;;;;;;;;;5013222;28;20042;-61
2024/01/09 04:33:24;;;;;;;13.52;6.72;;;;;;;;;;5014180;28;20064;-61
2024/01/09 04:35:50;;;;;;;10.65;6.57;;;;;;;;;;5011697;28;20468;-61
2024/01/09 04:38:16;;;;;;;10.68;6.63;;;;;;;;;;5020429;28;20068;-61
2024/01/09 04:40:43;;;;;;;15.55;6.72;;;;;;;;;;5015695;28;20121;-61
2024/01/09 04:43:09;;;;;;;11.15;7.03;;;;;;;;;;5025331;28;20029;-61
2024/01/09 04:45:35;;;;;;;11.68;7.00;;;;;;;;;;5011591;28;20029;-61
2024/01/09 04:48:01;;;;;;;10.52;6.95;;;;;;;;;;5013803;28;20419;-61
2024/01/09 04:50:27;;;;;;;12.10;7.10;;;;;;;;;;5013098;28;20095;-61
2024/01/09 04:52:53;;;;;;;12.30;7.00;;;;;;;;;;5013669;28;20026;-61
2024/01/09 04:55:19;;;;;;;9.68;7.00;;;;;;;;;;5013062;28;20021;-61
2024/01/09 04:57:45;;;;;;;12.20;6.95;;;;;;;;;;5009256;28;20034;-61
2024/01/09 05:00:11;;;;;;;12.32;7.47;;;;;;;;;;5011954;28;20026;-61
2024/01/09 05:02:37;;;;;;;12.80;6.93;;;;;;;;;;5012915;28;20030;-61
2024/01/09 05:05:06;;;;;;;14.50;6.90;;;;;;;;;;5011590;28;20056;-61
2024/01/09 05:07:32;;;;;;;11.02;7.70;;;;;;;;;;5006010;28;20029;-61
2024/01/09 05:09:58;;;;;;;12.02;7.53;;;;;;;;;;5011198;28;20061;-61
2024/01/09 05:12:24;;;;;;;11.95;7.20;;;;;;;;;;5023773;28;20033;-61
2024/01/09 05:14:50;;;;;;;16.08;7.90;;;;;;;;;;5015326;28;20038;-61
2024/01/09 05:17:16;;;;;;;13.07;7.45;;;;;;;;;;5024827;28;20095;-61
2024/01/09 05:19:42;;;;;;;10.90;7.20;;;;;;;;;;5011120;28;20156;-61
2024/01/09 05:22:08;;;;;;;11.60;7.05;;;;;;;;;;5012670;28;20104;-62
2024/01/09 05:24:34;;;;;;;11.32;7.22;;;;;;;;;;5013138;28;20033;-61
2024/01/09 05:30:21;;;;;;;12.70;7.43;;;;;;;;;;5007146;28;20522;-61
2024/01/09 05:32:47;;;;;;;14.80;7.63;;;;;;;;;;5007400;28;20045;-61
2024/01/09 05:38:17;;;;;;;12.25;8.15;;;;;;;;;;5008900;28;20081;-61
2024/01/09 05:40:43;;;;;;;11.35;8.10;;;;;;;;;;5007307;28;20030;-62
2024/01/09 05:43:09;;;;;;;15.88;8.20;;;;;;;;;;5007781;28;20032;-62
2024/01/09 05:45:35;;;;;;;13.35;8.18;;;;;;;;;;5010357;28;20030;-62
2024/01/09 05:48:01;;;;;;;15.75;8.45;;;;;;;;;;5012387;28;20091;-62
2024/01/09 05:50:27;;;;;;;11.88;8.50;;;;;;;;;;5011188;28;20365;-62
2024/01/09 05:52:53;;;;;;;12.30;9.27;;;;;;;;;;5012603;28;20546;-61
2024/01/09 05:55:19;;;;;;;16.90;8.25;;;;;;;;;;5010511;28;20025;-62
2024/01/09 05:57:45;;;;;;;14.52;8.27;;;;;;;;;;5011982;28;20030;-62
2024/01/09 06:00:11;;;;;;;13.98;8.35;;;;;;;;;;5012471;28;20026;-61
2024/01/09 06:02:37;;;;;;;13.43;8.18;;;;;;;;;;5011762;28;20030;-61
2024/01/09 06:05:03;;;;;;;11.45;7.10;;;;;;;;;;5011206;28;20056;-61
2024/01/09 06:07:29;;;;;;;10.60;7.35;;;;;;;;;;5014637;28;20099;-62
2024/01/09 06:09:55;;;;;;;9.80;8.00;;;;;;;;;;5011432;28;20037;-61
2024/01/09 06:12:21;;;;;;;12.25;8.52;;;;;;;;;;5012207;28;20033;-62
2024/01/09 06:14:47;;;;;;;13.65;8.02;;;;;;;;;;5009961;28;20562;-62
2024/01/09 06:17:44;;;;;;;9.70;7.18;;;;;;;;;;5011725;28;20041;-62
2024/01/09 06:20:10;;;;;;;12.73;7.63;;;;;;;;;;5007336;28;20545;-61
2024/01/09 06:22:37;;;;;;;17.55;8.27;;;;;;;;;;5012052;28;20029;-61
2024/01/09 06:25:03;;;;;;;11.30;6.93;;;;;;;;;;5011592;28;20040;-61
2024/01/09 06:27:29;;;;;;;12.48;6.97;;;;;;;;;;5011508;28;20021;-62
2024/01/09 06:29:55;;;;;;;11.30;7.30;;;;;;;;;;5009966;28;20048;-61
2024/01/09 06:32:24;;;;;;;11.00;6.38;;;;;;;;;;5011376;28;20022;-62
2024/01/09 06:34:50;;;;;;;10.57;7.22;;;;;;;;;;5011699;28;20083;-62
2024/01/09 06:37:16;;;;;;;10.57;6.53;;;;;;;;;;5011019;28;20093;-62
2024/01/09 06:39:42;;;;;;;10.50;6.80;;;;;;;;;;5010897;28;20531;-62
2024/01/09 06:42:08;;;;;;;10.98;7.00;;;;;;;;;;5011787;28;20057;-62
2024/01/09 06:44:34;;;;;;;13.43;8.10;;;;;;;;;;5010943;28;20546;-61
2024/01/09 06:47:00;;;;;;;11.30;6.70;;;;;;;;;;5010933;28;20053;-61
2024/01/09 06:49:26;;;;;;;12.65;6.65;;;;;;;;;;5009353;28;20396;-61
2024/01/09 06:51:53;;;;;;;9.27;7.00;;;;;;;;;;5011460;28;20054;-61
2024/01/09 06:54:20;;;;;;;10.65;7.13;;;;;;;;;;5011994;28;20109;-61
2024/01/09 06:56:46;;;;;;;10.38;7.13;;;;;;;;;;5011214;28;20022;-61
2024/01/09 06:59:12;;;;;;;11.07;7.25;;;;;;;;;;5010953;28;20428;-60
2024/01/09 07:07:45;;;;;;;9.57;6.80;;;;;;;;;;5000115;28;20033;-61
2024/01/09 07:10:12;;;;;;;12.93;7.05;;;;;;;;;;5018511;28;20038;-61
2024/01/09 07:12:38;;;;;;;15.82;8.13;;;;;;;;;;5019477;28;20069;-61
2024/01/09 07:21:37;;;;;;;10.77;7.65;;;;;;;;;;5005744;28;20044;-61
2024/01/09 07:24:26;;;;;;;8.63;7.05;;;;;;;;;;5009752;28;20441;-61
2024/01/09 07:26:52;;;;;;;11.90;7.03;;;;;;;;;;5018391;28;20126;-61
2024/01/09 07:29:19;;;;;;;11.48;7.20;;;;;;;;;;5017798;28;20045;-61
2024/01/09 07:31:45;;;;;;;12.20;6.75;;;;;;;;;;5025795;28;20033;-61
2024/01/09 07:34:11;;;;;;;10.13;6.68;;;;;;;;;;5026551;28;20022;-61
2024/01/09 07:36:37;;;;;;;14.30;6.65;;;;;;;;;;5032511;28;20108;-62
2024/01/09 07:39:05;;;;;;;11.77;6.60;;;;;;;;;;5016479;28;20041;-61
2024/01/09 07:41:31;;;;;;;13.25;6.82;;;;;;;;;;5018225;28;20045;-60
2024/01/09 07:43:57;;;;;;;9.88;6.55;;;;;;;;;;5022725;28;20453;-61
2024/01/09 07:46:23;;;;;;;8.80;6.70;;;;;;;;;;5018675;28;20088;-61
2024/01/09 07:48:49;;;;;;;11.50;6.70;;;;;;;;;;5018351;28;20124;-61
2024/01/09 07:51:15;;;;;;;13.07;5.93;;;;;;;;;;5014476;28;20077;-61
2024/01/09 07:53:41;;;;;;;10.70;6.57;;;;;;;;;;5018632;28;20426;-61
2024/01/09 07:59:34;;;;;;;11.15;5.72;;;;;;;;;;5011170;28;20582;-62
2024/01/09 08:02:05;;;;;;;11.85;6.63;;;;;;;;;;5001883;28;20032;-61
2024/01/09 08:04:34;;;;;;;9.37;5.90;;;;;;;;;;5014755;28;20353;-61
2024/01/09 08:07:00;;;;;;;10.80;6.53;;;;;;;;;;5005387;28;20027;-61
2024/01/09 08:09:26;;;;;;;11.32;6.55;;;;;;;;;;5017581;28;20041;-61
2024/01/09 08:11:52;;;;;;;12.83;7.03;;;;;;;;;;5013818;28;20522;-61
2024/01/09 08:14:18;;;;;;;10.57;6.50;;;;;;;;;;5013083;28;20113;-61
2024/01/09 08:16:44;;;;;;;12.60;6.22;;;;;;;;;;5014255;28;20076;-61
2024/01/09 08:19:10;;;;;;;9.98;5.95;;;;;;;;;;5013670;28;20033;-60
2024/01/09 08:21:37;;;;;;;9.13;6.57;;;;;;;;;;5013979;28;20036;-61
2024/01/09 08:24:03;;;;;;;10.88;6.15;;;;;;;;;;5012199;28;20042;-60
2024/01/09 08:26:30;;;;;;;14.48;6.95;;;;;;;;;;5011592;28;20026;-62
2024/01/09 08:28:56;;;;;;;16.65;6.97;;;;;;;;;;5012813;28;20053;-61
2024/01/09 08:31:22;;;;;;;9.45;6.13;;;;;;;;;;5013868;28;20026;-61
2024/01/09 08:33:48;;;;;;;9.60;6.57;;;;;;;;;;5013445;28;20037;-62
2024/01/09 08:36:20;;;;;;;13.07;6.47;;;;;;;;;;5022834;28;20072;-71
2024/01/09 08:38:46;;;;;;;9.30;5.97;;;;;;;;;;5014863;28;20022;-67
2024/01/09 08:41:12;;;;;;;8.95;6.25;;;;;;;;;;5013373;28;20080;-66
2024/01/09 08:43:40;;;;;;;11.70;6.25;;;;;;;;;;5013069;28;20029;-72
2024/01/09 08:46:06;;;;;;;10.38;6.10;;;;;;;;;;5011430;28;20121;-69
2024/01/09 08:48:32;;;;;;;9.10;6.10;;;;;;;;;;5010977;28;20125;-67
2024/01/09 08:50:58;;;;;;;8.70;6.03;;;;;;;;;;5013133;28;20053;-69
2024/01/09 08:53:28;;;;;;;10.90;5.88;;;;;;;;;;5012324;28;20065;-68
2024/01/09 08:55:54;;;;;;;9.35;5.97;;;;;;;;;;5011781;28;20128;-66
2024/01/09 08:58:20;;;;;;;12.00;5.85;;;;;;;;;;5015604;28;20153;-69
2024/01/09 09:00:46;;;;;;;9.35;5.70;;;;;;;;;;5013452;28;20092;-67
2024/01/09 09:03:12;;;;;;;13.85;6.40;;;;;;;;;;5011281;28;20480;-63
2024/01/09 09:05:38;;;;;;;13.57;7.55;;;;;;;;;;5013250;28;20026;-57
2024/01/09 09:08:04;;;;;;;16.50;7.82;;;;;;;;;;5013282;28;20056;-58
2024/01/09 09:10:30;;;;;;;10.02;6.72;;;;;;;;;;5013097;28;20509;-55
2024/01/09 09:12:56;;;;;;;8.35;6.80;;;;;;;;;;5013225;28;20097;-51
2024/01/09 09:15:23;;;;;;;8.95;6.50;;;;;;;;;;5013362;28;20022;-59
2024/01/09 09:17:49;;;;;;;10.15;6.25;;;;;;;;;;5012607;28;20034;-55
2024/01/09 09:20:17;;;;;;;10.55;6.50;;;;;;;;;;5013196;28;20017;-53
2024/01/09 09:22:43;;;;;;;9.90;6.03;;;;;;;;;;5013330;28;20030;-55
2024/01/09 09:25:09;;;;;;;9.95;6.13;;;;;;;;;;5012823;28;20022;-61
2024/01/09 09:27:35;;;;;;;9.48;6.53;;;;;;;;;;5005242;28;20057;-69
2024/01/09 09:30:01;;;;;;;10.00;6.50;;;;;;;;;;5009130;28;20084;-72
2024/01/09 09:32:27;;;;;;;10.60;6.22;;;;;;;;;;5011085;28;20376;-62
2024/01/09 09:34:53;;;;;;;9.70;6.07;;;;;;;;;;5011158;28;20038;-61
2024/01/09 09:37:20;;;;;;;8.00;6.32;;;;;;;;;;5011655;28;20037;-67
2024/01/09 09:39:46;;;;;;;10.38;6.43;;;;;;;;;;5025593;28;20040;-73
2024/01/09 09:42:11;;;;;;;10.40;6.20;;;;;;;;;;5010517;28;20100;-69
2024/01/09 09:44:38;;;;;;;8.93;6.20;;;;;;;;;;5013977;28;20370;-61
2024/01/09 09:47:07;;;;;;;10.43;6.72;;;;;;;;;;5012613;28;20492;-60
2024/01/09 09:49:35;;;;;;;9.25;6.80;;;;;;;;;;5013019;28;20041;-61
2024/01/09 09:52:01;;;;;;;11.07;5.82;;;;;;;;;;5011757;28;20104;-64
2024/01/09 09:54:27;;;;;;;8.75;6.55;;;;;;;;;;5017245;28;20104;-61
2024/01/09 09:56:53;;;;;;;11.13;6.15;;;;;;;;;;5010999;28;20053;-64
2024/01/09 09:59:19;;;;;;;15.45;6.70;;;;;;;;;;5015088;28;20424;-61
2024/01/09 10:01:46;;;;;;;11.60;6.82;;;;;;;;;;5020599;28;20108;-61
2024/01/09 10:04:30;;;;;;;10.00;6.30;;;;;;;;;;5022802;28;20087;-61
2024/01/09 10:06:56;;;;;;;13.27;6.75;;;;;;;;;;5020152;28;20021;-61
2024/01/09 10:09:23;;;;;;;6.13;4.97;;;;;;;;;;5015756;28;20061;-61
2024/01/09 10:11:50;;;;;;;10.55;5.00;;;;;;;;;;5010356;28;20017;-52
2024/01/09 10:14:16;;;;;;;9.50;6.07;;;;;;;;;;5013054;28;20349;-53
2024/01/09 10:16:55;;;;;;;9.93;5.82;;;;;;;;;;4997395;28;20034;-56
2024/01/09 10:19:24;;;;;;;11.40;5.68;;;;;;;;;;5008281;28;20029;-68
2024/01/09 10:21:50;;;;;;;8.30;5.78;;;;;;;;;;5023969;28;20132;-60
2024/01/09 10:24:17;;;;;;;9.35;6.05;;;;;;;;;;5012162;28;20034;-62
2024/01/09 10:26:43;;;;;;;11.85;7.00;;;;;;;;;;5011823;28;20026;-61
2024/01/09 10:29:10;;;;;;;9.18;5.95;;;;;;;;;;5019253;28;20467;-68
2024/01/09 10:31:36;;;;;;;9.07;5.70;;;;;;;;;;5012830;28;20061;-70
2024/01/09 10:34:02;;;;;;;10.38;5.65;;;;;;;;;;5017429;28;20040;-71
2024/01/09 10:36:28;;;;;;;11.15;6.13;;;;;;;;;;5012106;28;20140;-71
2024/01/09 10:39:13;;;;;;;14.73;7.00;;;;;;;;;;5012324;28;20026;-72
2024/01/09 10:41:39;;;;;;;11.65;7.13;;;;;;;;;;5014565;28;20026;-68
2024/01/09 10:44:07;;;;;;;13.00;5.85;;;;;;;;;;5010475;28;20049;-67
2024/01/09 10:46:33;;;;;;;6.45;5.03;;;;;;;;;;5023336;28;20037;-70
2024/01/09 10:49:00;;;;;;;8.02;5.50;;;;;;;;;;5017915;28;20045;-68
2024/01/09 10:51:27;;;;;;;8.63;5.90;;;;;;;;;;5018853;28;20085;-71
2024/01/09 10:53:53;;;;;;;12.38;6.80;;;;;;;;;;5016690;28;20467;-65
2024/01/09 10:56:21;;;;;;;9.10;7.60;;;;;;;;;;5021828;28;20200;-69
2024/01/09 10:58:53;;;;;;;18.20;8.10;;;;;;;;;;5014479;28;20107;-68
2024/01/09 11:01:20;;;;;;;9.05;5.78;;;;;;;;;;5011054;28;20022;-66
2024/01/09 11:03:47;;;;;;;9.68;5.97;;;;;;;;;;5012015;28;20026;-65
2024/01/09 11:06:19;;;;;;;10.05;5.35;;;;;;;;;;5014965;28;20356;-60
2024/01/09 11:08:50;;;;;;;7.38;5.32;;;;;;;;;;5015143;28;20144;-61
2024/01/09 11:11:17;;;;;;;10.60;6.15;;;;;;;;;;5015605;28;20112;-60
2024/01/09 11:16:48;;;;;;;12.75;5.60;;;;;;;;;;5009457;28;20064;-63
2024/01/09 11:19:14;;;;;;;10.07;6.03;;;;;;;;;;5015815;28;20038;-65
2024/01/09 11:21:40;;;;;;;9.20;5.65;;;;;;;;;;5014545;28;20381;-64
2024/01/09 11:24:06;;;;;;;7.80;5.50;;;;;;;;;;5015191;28;20081;-60
2024/01/09 11:26:34;;;;;;;10.60;5.88;;;;;;;;;;5013996;28;20455;-65
2024/01/09 11:29:00;;;;;;;11.90;7.15;;;;;;;;;;5015371;28;20072;-62
2024/01/09 11:31:27;;;;;;;9.60;6.00;;;;;;;;;;5015243;28;20029;-65
2024/01/09 11:33:55;;;;;;;9.45;6.00;;;;;;;;;;5015025;28;20049;-63
2024/01/09 11:36:23;;;;;;;8.80;5.43;;;;;;;;;;5015376;28;20026;-72
2024/01/09 11:38:52;;;;;;;10.43;5.38;;;;;;;;;;5015141;28;20535;-64
2024/01/09 11:41:18;;;;;;;9.20;5.07;;;;;;;;;;5013732;28;20025;-70
2024/01/09 11:44:01;;;;;;;11.35;5.70;;;;;;;;;;5013636;28;20029;-69
2024/01/09 11:46:28;;;;;;;9.23;6.18;;;;;;;;;;5014245;28;20030;-64
2024/01/09 11:48:54;;;;;;;10.65;5.93;;;;;;;;;;5015000;28;20038;-64
2024/01/09 11:51:23;;;;;;;9.95;6.15;;;;;;;;;;5006268;28;20203;-62
2024/01/09 11:53:50;;;;;;;10.82;5.80;;;;;;;;;;5014298;28;20025;-61
2024/01/09 11:56:16;;;;;;;10.77;5.80;;;;;;;;;;5013354;28;20468;-62
2024/01/09 11:58:43;;;;;;;11.07;6.72;;;;;;;;;;5002692;28;20034;-62
2024/01/09 12:01:09;;;;;;;11.13;6.43;;;;;;;;;;5021035;28;20025;-61
2024/01/09 12:03:35;;;;;;;10.55;6.22;;;;;;;;;;5020564;28;20490;-62
2024/01/09 12:06:04;;;;;;;14.88;6.65;;;;;;;;;;5014976;28;20034;-62
2024/01/09 12:08:30;;;;;;;10.65;5.85;;;;;;;;;;5014839;28;20026;-61
2024/01/09 12:10:57;;;;;;;7.90;5.65;;;;;;;;;;5014990;28;20034;-62
2024/01/09 12:13:23;;;;;;;9.38;5.85;;;;;;;;;;5014807;28;20447;-62
2024/01/09 12:15:48;;;;;;;7.57;5.78;;;;;;;;;;5014109;28;20503;-62
2024/01/09 12:18:15;;;;;;;12.63;7.15;;;;;;;;;;5014578;28;20030;-62
2024/01/09 12:20:41;;;;;;;16.33;6.70;;;;;;;;;;5013445;28;20056;-62
2024/01/09 12:23:07;;;;;;;10.68;6.70;;;;;;;;;;5014821;28;20026;-63
2024/01/09 12:25:34;;;;;;;12.50;6.63;;;;;;;;;;5014984;28;20038;-62
2024/01/09 12:28:01;;;;;;;13.00;7.03;;;;;;;;;;5014606;28;20490;-62
2024/01/09 12:30:28;;;;;;;8.25;6.03;;;;;;;;;;5014630;28;20041;-62
2024/01/09 12:32:54;;;;;;;12.48;7.10;;;;;;;;;;5014261;28;20034;-62
2024/01/09 12:35:20;;;;;;;8.30;6.53;;;;;;;;;;5014376;28;20034;-61
2024/01/09 12:37:47;;;;;;;11.93;6.50;;;;;;;;;;5014144;28;20084;-62
2024/01/09 12:40:20;;;;;;;9.98;6.50;;;;;;;;;;5014535;28;20021;-63
2024/01/09 12:42:46;;;;;;;10.90;6.85;;;;;;;;;;5012282;28;20025;-62
2024/01/09 12:45:12;;;;;;;8.93;6.20;;;;;;;;;;5014035;28;20379;-62
2024/01/09 12:47:38;;;;;;;12.52;7.32;;;;;;;;;;5010068;28;20030;-62
2024/01/09 12:50:05;;;;;;;12.20;6.40;;;;;;;;;;5013636;28;20053;-62
2024/01/09 12:52:31;;;;;;;9.98;5.97;;;;;;;;;;5014045;28;20026;-62
2024/01/09 12:54:59;;;;;;;14.77;7.93;;;;;;;;;;5013952;28;20049;-62
2024/01/09 12:57:25;;;;;;;13.68;7.40;;;;;;;;;;5014494;28;20103;-62
2024/01/09 12:59:51;;;;;;;11.07;6.80;;;;;;;;;;5013847;28;20464;-61
2024/01/09 13:02:17;;;;;;;9.57;7.15;;;;;;;;;;5013815;28;20443;-62
2024/01/09 13:04:46;;;;;;;12.50;7.25;;;;;;;;;;5013768;28;20506;-62
2024/01/09 13:07:14;;;;;;;9.27;6.57;;;;;;;;;;5013580;28;20044;-61
2024/01/09 13:12:44;;;;;;;9.70;7.05;;;;;;;;;;5003626;28;20412;-62
2024/01/09 13:15:10;;;;;;;9.77;6.85;;;;;;;;;;5013308;28;20391;-62
2024/01/09 13:17:36;;;;;;;10.50;7.03;;;;;;;;;;5011008;28;20097;-62
2024/01/09 13:20:06;;;;;;;11.60;7.70;;;;;;;;;;5011930;28;20026;-61
2024/01/09 13:22:32;;;;;;;11.32;6.75;;;;;;;;;;5009906;28;20033;-61
2024/01/09 13:24:58;;;;;;;9.02;6.65;;;;;;;;;;5009543;28;20549;-61
2024/01/09 13:27:24;;;;;;;11.77;6.88;;;;;;;;;;5009787;28;20018;-62
2024/01/09 13:29:50;;;;;;;11.27;7.10;;;;;;;;;;5011772;28;20705;-62
2024/01/09 13:32:17;;;;;;;11.43;6.90;;;;;;;;;;5012235;28;20488;-63
2024/01/09 13:34:43;;;;;;;9.60;6.80;;;;;;;;;;5012073;28;20029;-61
2024/01/09 13:37:09;;;;;;;11.48;7.55;;;;;;;;;;5012284;28;20476;-65
2024/01/09 13:39:36;;;;;;;11.82;7.22;;;;;;;;;;5013064;28;20021;-62
2024/01/09 13:42:03;;;;;;;9.35;7.32;;;;;;;;;;5012731;28;20036;-62
2024/01/09 13:44:29;;;;;;;10.80;7.20;;;;;;;;;;5012276;28;20025;-65
2024/01/09 13:46:55;;;;;;;10.98;7.80;;;;;;;;;;5012601;28;20053;-64
2024/01/09 13:49:21;;;;;;;9.88;7.13;;;;;;;;;;5012290;28;20120;-63
2024/01/09 13:51:47;;;;;;;10.02;7.30;;;;;;;;;;5012191;28;20222;-61
2024/01/09 13:54:14;;;;;;;9.52;6.75;;;;;;;;;;5011956;28;20057;-63
2024/01/09 13:56:39;;;;;;;12.82;7.78;;;;;;;;;;5012482;28;20021;-64
2024/01/09 13:59:05;;;;;;;10.13;7.57;;;;;;;;;;5012737;28;20088;-68
2024/01/09 14:01:31;;;;;;;12.77;7.45;;;;;;;;;;5012219;28;20033;-68
2024/01/09 14:03:57;;;;;;;11.18;7.97;;;;;;;;;;5012908;28;20037;-65
2024/01/09 14:06:29;;;;;;;14.73;7.93;;;;;;;;;;5005782;28;20049;-77
2024/01/09 14:08:55;;;;;;;9.75;7.60;;;;;;;;;;5009788;28;20492;-58
2024/01/09 14:11:21;;;;;;;10.38;7.75;;;;;;;;;;5012072;28;20087;-66
2024/01/09 14:13:47;;;;;;;13.50;7.28;;;;;;;;;;5005145;28;20472;-65
2024/01/09 14:16:13;;;;;;;9.70;7.22;;;;;;;;;;5012201;28;20096;-74
2024/01/09 14:18:39;;;;;;;12.88;7.85;;;;;;;;;;5012226;28;20022;-66
2024/01/09 14:21:05;;;;;;;11.70;7.03;;;;;;;;;;5011603;28;20033;-61
2024/01/09 14:23:31;;;;;;;9.98;7.70;;;;;;;;;;5011637;28;20037;-61
2024/01/09 14:25:57;;;;;;;9.20;7.00;;;;;;;;;;5003954;28;20037;-61
2024/01/09 14:28:23;;;;;;;12.98;9.07;;;;;;;;;;5009657;28;20161;-61
2024/01/09 14:30:49;;;;;;;10.02;8.15;;;;;;;;;;5011066;28;20036;-65
2024/01/09 14:33:15;;;;;;;14.73;8.32;;;;;;;;;;5011900;28;20026;-66
2024/01/09 14:35:41;;;;;;;15.30;9.43;;;;;;;;;;5011338;28;20125;-67
2024/01/09 14:38:07;;;;;;;15.35;7.93;;;;;;;;;;5011692;28;20109;-66
2024/01/09 14:40:34;;;;;;;10.88;8.20;;;;;;;;;;5011554;28;20528;-60
2024/01/09 14:43:01;;;;;;;11.10;8.13;;;;;;;;;;5007329;28;20030;-59
2024/01/09 14:45:27;;;;;;;13.15;8.20;;;;;;;;;;5005212;28;20045;-65
2024/01/09 14:47:53;;;;;;;15.55;9.15;;;;;;;;;;5011577;28;20096;-65
2024/01/09 14:50:19;;;;;;;10.57;7.85;;;;;;;;;;5009576;28;20164;-65
2024/01/09 14:52:45;;;;;;;17.30;8.13;;;;;;;;;;5009595;28;20453;-67